Time;durP1;ratioP1;P1;durP2;ratioP2;P2;SDS_P1;SDS_P2;PMS_P1;PMS_P2;Temp;Humidity;BMP_temperature;BMP_pressure;BME280_temperature;BME280_humidity;BME280_pressure;Samples;Min_cycle;Max_cycle;Signal;HPM_P1;HPM_P2
2023/05/15 00:02:11;;;;;;;7.13;5.85;;;9.70;99.90;;;;;;5072522;28;20535;-72
2023/05/15 00:04:37;;;;;;;7.30;6.10;;;9.80;99.90;;;;;;5072322;28;20082;-72
2023/05/15 00:07:03;;;;;;;6.68;5.20;;;9.80;99.90;;;;;;5073116;28;20430;-73
2023/05/15 00:09:28;;;;;;;7.47;5.47;;;9.80;99.90;;;;;;5072349;28;20037;-72
2023/05/15 00:11:54;;;;;;;7.90;5.93;;;9.80;99.90;;;;;;5073237;28;20028;-72
2023/05/15 00:14:19;;;;;;;6.60;5.40;;;9.80;99.90;;;;;;5068202;28;20507;-72
2023/05/15 00:16:45;;;;;;;6.93;5.78;;;9.90;99.90;;;;;;5072888;28;20072;-73
2023/05/15 00:19:10;;;;;;;6.53;5.22;;;9.90;99.90;;;;;;5063814;28;20078;-72
2023/05/15 00:21:36;;;;;;;6.30;5.47;;;9.90;99.90;;;;;;5069474;28;20020;-73
2023/05/15 00:24:02;;;;;;;5.85;5.20;;;9.90;99.90;;;;;;5072412;28;20021;-72
2023/05/15 00:26:28;;;;;;;6.20;5.03;;;10.00;99.90;;;;;;5065736;28;20035;-72
2023/05/15 00:28:54;;;;;;;6.65;5.40;;;10.00;99.90;;;;;;5072174;28;20111;-72
2023/05/15 00:31:20;;;;;;;8.05;5.07;;;10.00;99.90;;;;;;5070856;28;20070;-72
2023/05/15 00:33:46;;;;;;;6.43;5.65;;;10.00;99.90;;;;;;5071661;28;20025;-72
2023/05/15 00:36:11;;;;;;;5.25;4.72;;;10.00;99.90;;;;;;5072766;28;20056;-72
2023/05/15 00:38:37;;;;;;;7.57;4.53;;;10.00;99.90;;;;;;5067046;28;20051;-72
2023/05/15 00:41:05;;;;;;;5.95;4.57;;;10.00;99.90;;;;;;5072956;28;20028;-73
2023/05/15 00:43:31;;;;;;;6.97;5.00;;;10.10;99.90;;;;;;5071465;28;20476;-72
2023/05/15 00:45:58;;;;;;;4.88;4.43;;;10.10;99.90;;;;;;5072577;28;20070;-73
2023/05/15 00:48:26;;;;;;;5.45;4.95;;;10.10;99.90;;;;;;5070615;28;20134;-72
2023/05/15 00:50:53;;;;;;;5.50;4.95;;;10.20;99.90;;;;;;5062522;28;20125;-72
2023/05/15 00:53:18;;;;;;;7.30;4.70;;;10.20;99.90;;;;;;5071800;28;20039;-72
2023/05/15 00:55:48;;;;;;;8.65;5.28;;;10.20;99.90;;;;;;5069197;28;20037;-71
2023/05/15 00:58:15;;;;;;;;;;;10.30;99.90;;;;;;5072412;28;20162;-72
2023/05/15 01:00:43;;;;;;;6.32;5.35;;;10.30;99.90;;;;;;5068975;28;19916;-73
2023/05/15 01:03:09;;;;;;;7.10;5.38;;;10.40;99.90;;;;;;5065159;28;20036;-73
2023/05/15 01:05:34;;;;;;;7.72;6.40;;;10.40;99.90;;;;;;5071166;28;20040;-73
2023/05/15 01:08:15;;;;;;;7.82;5.80;;;10.30;99.90;;;;;;5071592;28;20545;-72
2023/05/15 01:10:42;;;;;;;7.22;6.00;;;10.30;99.90;;;;;;5071258;28;20846;-72
2023/05/15 01:13:10;;;;;;;8.68;6.45;;;10.20;99.90;;;;;;5069644;28;20032;-72
2023/05/15 01:15:36;;;;;;;7.63;5.75;;;10.10;99.90;;;;;;5066542;28;20036;-72
2023/05/15 01:18:02;;;;;;;6.85;6.00;;;10.10;99.90;;;;;;5071049;28;20424;-72
2023/05/15 01:20:33;;;;;;;7.25;6.13;;;10.10;99.90;;;;;;5064819;28;20028;-72
2023/05/15 01:23:14;;;;;;;7.75;5.28;;;10.10;99.90;;;;;;5064699;28;20036;-72
2023/05/15 01:26:07;;;;;;;7.03;5.13;;;10.10;99.90;;;;;;5070614;28;20023;-72
2023/05/15 01:28:47;;;;;;;7.03;5.47;;;10.10;99.90;;;;;;5067104;28;20021;-72
2023/05/15 01:31:16;;;;;;;6.95;6.20;;;10.00;99.90;;;;;;5070476;28;20059;-72
2023/05/15 01:33:46;;;;;;;6.23;5.50;;;10.00;99.90;;;;;;5070324;28;20037;-72
2023/05/15 01:36:28;;;;;;;7.70;5.80;;;10.00;99.90;;;;;;5071341;28;20020;-72
2023/05/15 01:38:57;;;;;;;6.80;5.50;;;10.00;99.90;;;;;;5070546;28;20032;-72
2023/05/15 01:41:35;;;;;;;5.50;4.85;;;10.00;99.90;;;;;;5070714;28;20021;-72
2023/05/15 01:44:14;;;;;;;5.47;4.88;;;9.90;99.90;;;;;;5070652;28;20031;-72
2023/05/15 01:46:44;;;;;;;7.57;5.47;;;9.90;99.90;;;;;;5070821;28;20028;-72
2023/05/15 01:49:12;;;;;;;5.18;4.68;;;9.90;99.90;;;;;;5070384;28;20121;-72
2023/05/15 01:51:40;;;;;;;5.25;4.70;;;9.90;99.90;;;;;;5070417;28;20036;-72
2023/05/15 01:54:07;;;;;;;5.43;4.85;;;9.90;99.90;;;;;;5057376;28;20457;-73
2023/05/15 01:56:34;;;;;;;4.63;4.22;;;9.90;99.90;;;;;;5070192;28;20036;-72
2023/05/15 01:59:02;;;;;;;5.05;4.55;;;9.90;99.90;;;;;;5070967;28;20033;-72
2023/05/15 02:01:31;;;;;;;5.82;4.50;;;9.90;99.90;;;;;;5068408;28;20048;-72
2023/05/15 02:03:57;;;;;;;5.68;5.10;;;9.90;99.90;;;;;;5070218;28;20029;-72
2023/05/15 02:06:24;;;;;;;6.55;5.60;;;9.90;99.90;;;;;;5070501;28;20103;-73
2023/05/15 02:08:50;;;;;;;6.13;5.13;;;9.90;99.90;;;;;;5071005;28;20028;-73
2023/05/15 02:11:16;;;;;;;4.68;4.28;;;9.90;99.90;;;;;;5071147;28;20029;-73
2023/05/15 02:13:42;;;;;;;6.57;4.40;;;9.90;99.90;;;;;;5070319;28;20034;-72
2023/05/15 02:16:08;;;;;;;10.60;4.50;;;9.80;99.90;;;;;;5061244;28;20373;-72
2023/05/15 02:18:33;;;;;;;5.50;4.55;;;9.80;99.90;;;;;;5069878;28;20020;-72
2023/05/15 02:21:01;;;;;;;7.15;5.22;;;9.80;99.90;;;;;;5065914;28;20081;-72
2023/05/15 02:23:27;;;;;;;5.90;5.30;;;9.70;99.90;;;;;;5081464;28;20445;-73
2023/05/15 02:26:11;;;;;;;5.93;5.00;;;9.70;99.90;;;;;;5071218;28;20055;-71
2023/05/15 02:28:53;;;;;;;6.05;5.13;;;9.70;99.90;;;;;;5070359;28;20665;-72
2023/05/15 02:31:46;;;;;;;6.20;5.00;;;9.70;99.90;;;;;;5068809;28;20035;-75
2023/05/15 02:34:19;;;;;;;6.55;5.25;;;9.70;99.90;;;;;;5070861;28;20487;-73
2023/05/15 02:36:48;;;;;;;6.43;5.40;;;9.70;99.90;;;;;;5070093;28;20072;-73
2023/05/15 02:39:15;;;;;;;8.05;5.20;;;9.70;99.90;;;;;;5068445;28;20032;-72
2023/05/15 02:41:42;;;;;;;5.85;5.25;;;9.70;99.90;;;;;;5062589;28;20033;-73
2023/05/15 02:44:09;;;;;;;6.05;5.43;;;9.60;99.90;;;;;;5069542;28;20130;-73
2023/05/15 02:46:36;;;;;;;6.28;5.03;;;9.60;99.90;;;;;;5070151;28;20036;-73
2023/05/15 02:49:02;;;;;;;6.07;4.88;;;9.50;99.90;;;;;;5070969;28;20436;-73
2023/05/15 02:51:28;;;;;;;6.63;5.72;;;9.50;99.90;;;;;;5056164;28;20021;-73
2023/05/15 02:53:54;;;;;;;6.32;5.50;;;9.60;99.90;;;;;;5074048;28;20381;-73
2023/05/15 02:56:21;;;;;;;6.93;5.82;;;9.60;99.90;;;;;;5069104;28;20028;-73
2023/05/15 02:58:46;;;;;;;5.90;5.10;;;9.60;99.90;;;;;;5072404;28;20029;-72
2023/05/15 03:01:12;;;;;;;6.57;5.20;;;9.70;99.90;;;;;;5072380;28;20047;-72
2023/05/15 03:03:38;;;;;;;8.43;5.53;;;9.70;99.90;;;;;;5072551;28;20028;-73
2023/05/15 03:06:03;;;;;;;7.07;5.40;;;9.70;99.90;;;;;;5074365;28;20032;-72
2023/05/15 03:08:29;;;;;;;7.95;5.75;;;9.80;99.90;;;;;;5072821;28;20376;-72
2023/05/15 03:10:54;;;;;;;8.05;5.55;;;9.80;99.90;;;;;;5072040;28;20024;-73
2023/05/15 03:13:20;;;;;;;6.22;5.53;;;10.70;99.90;;;;;;5073150;28;20023;-72
2023/05/15 03:15:45;;;;;;;5.93;4.80;;;9.90;99.90;;;;;;5074047;28;20100;-74
2023/05/15 03:18:11;;;;;;;6.95;5.15;;;9.90;99.90;;;;;;5073788;28;20480;-73
2023/05/15 03:20:37;;;;;;;7.70;5.32;;;10.00;99.90;;;;;;5072853;28;20056;-72
2023/05/15 03:23:02;;;;;;;7.20;4.93;;;10.00;99.90;;;;;;5073662;28;20036;-73
2023/05/15 03:25:28;;;;;;;6.50;5.03;;;10.00;99.90;;;;;;5073516;28;20032;-73
2023/05/15 03:27:53;;;;;;;5.90;4.60;;;10.00;99.90;;;;;;5074931;28;20107;-72
2023/05/15 03:30:19;;;;;;;5.88;4.93;;;10.00;99.90;;;;;;5071996;28;20143;-72
2023/05/15 03:32:44;;;;;;;5.68;5.07;;;10.10;99.90;;;;;;5069077;28;20053;-71
2023/05/15 03:35:10;;;;;;;6.82;5.38;;;10.10;99.90;;;;;;5074042;28;20047;-72
2023/05/15 03:37:36;;;;;;;5.43;4.80;;;10.10;99.90;;;;;;5072347;28;20058;-72
2023/05/15 03:40:01;;;;;;;6.85;4.82;;;10.10;99.90;;;;;;5059545;28;20380;-73
2023/05/15 03:42:28;;;;;;;5.15;4.65;;;10.20;99.90;;;;;;5060029;28;20146;-72
2023/05/15 03:44:54;;;;;;;6.00;5.43;;;10.20;99.90;;;;;;5063775;28;20086;-72
2023/05/15 03:47:20;;;;;;;5.00;4.30;;;10.20;99.90;;;;;;5071485;28;20078;-72
2023/05/15 03:49:46;;;;;;;5.72;4.50;;;10.20;99.90;;;;;;5073081;28;20052;-71
2023/05/15 03:52:12;;;;;;;7.03;5.03;;;10.20;99.90;;;;;;5073815;28;20052;-70
2023/05/15 03:54:37;;;;;;;4.80;4.40;;;10.30;99.90;;;;;;5062443;28;20021;-71
2023/05/15 03:57:03;;;;;;;5.20;4.70;;;10.30;99.90;;;;;;5060682;28;20113;-73
2023/05/15 03:59:30;;;;;;;5.13;4.63;;;10.30;99.90;;;;;;5062984;28;20032;-72
2023/05/15 04:01:55;;;;;;;6.05;4.53;;;10.30;99.90;;;;;;5067230;28;20116;-72
2023/05/15 04:04:21;;;;;;;6.90;5.50;;;10.30;99.90;;;;;;5072533;28;20103;-72
2023/05/15 04:06:46;;;;;;;5.78;5.03;;;10.30;99.90;;;;;;5072504;28;20036;-72
2023/05/15 04:09:12;;;;;;;5.15;4.65;;;10.40;99.90;;;;;;5072826;28;20044;-72
2023/05/15 04:11:37;;;;;;;5.50;4.63;;;10.50;99.90;;;;;;5072201;28;20017;-72
2023/05/15 04:14:03;;;;;;;6.68;4.78;;;10.50;99.90;;;;;;5072836;28;20040;-72
2023/05/15 04:16:29;;;;;;;5.60;4.85;;;10.60;99.90;;;;;;5072184;28;20066;-73
2023/05/15 04:18:54;;;;;;;5.00;4.50;;;10.60;99.90;;;;;;5070990;28;20035;-72
2023/05/15 04:21:20;;;;;;;5.20;4.68;;;10.70;99.90;;;;;;5071949;28;20410;-72
2023/05/15 04:23:45;;;;;;;4.45;4.05;;;10.80;99.90;;;;;;5072617;28;20410;-71
2023/05/15 04:26:11;;;;;;;4.85;4.32;;;10.90;99.90;;;;;;5076942;28;20035;-71
2023/05/15 04:28:37;;;;;;;4.85;4.35;;;10.90;99.90;;;;;;5075901;28;20028;-72
2023/05/15 04:31:02;;;;;;;4.80;4.15;;;11.00;99.90;;;;;;5071139;28;20025;-72
2023/05/15 04:33:28;;;;;;;4.80;4.30;;;11.10;99.90;;;;;;5068970;28;20037;-72
2023/05/15 04:35:54;;;;;;;7.40;5.57;;;11.20;99.90;;;;;;5072559;28;20020;-73
2023/05/15 04:38:19;;;;;;;5.43;4.88;;;11.30;99.90;;;;;;5075887;28;20032;-73
2023/05/15 04:40:45;;;;;;;5.40;4.90;;;11.40;99.90;;;;;;5078380;28;20032;-73
2023/05/15 04:43:11;;;;;;;5.53;5.03;;;11.50;99.90;;;;;;5081076;28;20485;-73
2023/05/15 04:45:36;;;;;;;5.60;5.00;;;11.70;99.90;;;;;;5082128;28;20052;-73
2023/05/15 04:48:02;;;;;;;4.97;4.43;;;11.80;99.90;;;;;;5079031;28;20052;-73
2023/05/15 04:50:28;;;;;;;6.80;5.10;;;11.90;99.90;;;;;;5064696;28;20024;-73
2023/05/15 04:52:53;;;;;;;6.55;5.47;;;12.00;99.90;;;;;;5066706;28;20025;-73
2023/05/15 04:55:22;;;;;;;6.20;5.40;;;12.20;99.90;;;;;;5060167;28;20017;-72
2023/05/15 04:57:47;;;;;;;6.47;5.07;;;12.30;99.90;;;;;;5065049;28;20040;-72
2023/05/15 05:00:14;;;;;;;5.53;5.03;;;12.50;99.90;;;;;;5057478;28;20025;-73
2023/05/15 05:02:42;;;;;;;6.53;5.85;;;12.70;99.90;;;;;;5064074;28;20024;-72
2023/05/15 05:05:08;;;;;;;6.25;5.65;;;12.80;99.90;;;;;;5065821;28;20110;-72
2023/05/15 05:07:34;;;;;;;5.90;5.30;;;12.80;99.90;;;;;;5069318;28;20040;-72
2023/05/15 05:10:00;;;;;;;7.10;5.40;;;12.90;99.90;;;;;;5064709;28;20461;-72
2023/05/15 05:12:26;;;;;;;6.40;5.38;;;13.00;99.90;;;;;;5068260;28;20056;-72
2023/05/15 05:14:52;;;;;;;7.72;5.15;;;13.30;99.90;;;;;;5056790;28;20111;-73
2023/05/15 05:17:17;;;;;;;6.07;5.40;;;13.40;99.90;;;;;;5058538;28;20036;-73
2023/05/15 05:19:43;;;;;;;5.88;5.28;;;13.50;99.90;;;;;;5054169;28;20517;-72
2023/05/15 05:22:09;;;;;;;5.90;5.20;;;13.60;99.90;;;;;;5064639;28;20427;-72
2023/05/15 05:24:36;;;;;;;6.25;5.65;;;13.60;99.90;;;;;;5062132;28;20470;-72
2023/05/15 05:27:02;;;;;;;7.07;5.47;;;13.70;99.90;;;;;;5055478;28;20036;-74
2023/05/15 05:29:29;;;;;;;7.78;5.78;;;13.70;99.90;;;;;;5053124;28;20531;-73
2023/05/15 05:31:55;;;;;;;7.68;5.88;;;13.80;99.90;;;;;;5046498;28;20144;-72
2023/05/15 05:34:21;;;;;;;6.85;6.00;;;13.80;99.90;;;;;;5050690;28;20040;-72
2023/05/15 05:36:48;;;;;;;10.13;6.07;;;13.80;99.90;;;;;;5047973;28;20095;-73
2023/05/15 05:39:15;;;;;;;6.57;5.97;;;13.70;99.90;;;;;;5034650;28;20029;-77
2023/05/15 05:41:41;;;;;;;9.25;6.53;;;13.80;99.90;;;;;;5041321;28;20525;-75
2023/05/15 05:44:07;;;;;;;7.70;5.75;;;13.80;99.90;;;;;;5042127;28;20052;-81
2023/05/15 05:46:33;;;;;;;6.93;6.20;;;13.90;99.90;;;;;;5031921;28;20029;-73
2023/05/15 05:48:58;;;;;;;7.85;6.70;;;13.90;99.90;;;;;;5059663;28;20095;-72
2023/05/15 05:51:24;;;;;;;6.45;5.85;;;14.00;99.90;;;;;;5061075;28;20020;-72
2023/05/15 05:53:49;;;;;;;10.18;7.90;;;14.00;99.90;;;;;;5064344;28;20029;-73
2023/05/15 05:56:15;;;;;;;7.88;6.63;;;14.00;99.90;;;;;;5060102;28;20060;-75
2023/05/15 05:58:41;;;;;;;15.30;8.00;;;14.10;99.90;;;;;;5039055;28;20021;-72
2023/05/15 06:01:07;;;;;;;9.27;6.88;;;14.10;99.90;;;;;;5050248;28;20025;-73
2023/05/15 06:03:34;;;;;;;7.53;6.63;;;14.10;99.90;;;;;;5061586;28;20036;-73
2023/05/15 06:05:59;;;;;;;8.23;6.82;;;14.10;99.90;;;;;;5047795;28;20039;-74
2023/05/15 06:08:25;;;;;;;8.30;7.18;;;14.10;99.90;;;;;;5046982;28;20119;-74
2023/05/15 06:10:51;;;;;;;10.05;7.07;;;14.20;99.90;;;;;;5045757;28;20021;-74
2023/05/15 06:13:16;;;;;;;12.40;7.85;;;14.20;99.90;;;;;;5035941;28;20033;-74
2023/05/15 06:15:42;;;;;;;7.90;6.88;;;14.30;99.90;;;;;;5050860;28;20063;-74
2023/05/15 06:18:08;;;;;;;7.82;6.47;;;14.30;99.90;;;;;;5042295;28;20037;-73
2023/05/15 06:20:33;;;;;;;13.15;8.93;;;14.30;99.90;;;;;;5041519;28;20103;-73
2023/05/15 06:22:59;;;;;;;10.23;8.30;;;14.40;99.90;;;;;;5047903;28;20021;-72
2023/05/15 06:25:25;;;;;;;11.25;7.80;;;14.60;99.90;;;;;;5045965;28;20085;-74
2023/05/15 06:27:50;;;;;;;8.32;7.25;;;14.60;99.90;;;;;;5062260;28;20025;-74
2023/05/15 06:30:16;;;;;;;9.27;7.35;;;14.70;99.90;;;;;;5045795;28;20509;-73
2023/05/15 06:32:41;;;;;;;9.20;7.13;;;14.70;99.90;;;;;;5040443;28;20044;-74
2023/05/15 06:35:08;;;;;;;8.95;6.90;;;14.80;99.90;;;;;;5046923;28;20036;-74
2023/05/15 06:37:36;;;;;;;10.75;7.30;;;14.80;99.90;;;;;;5052706;28;20043;-73
2023/05/15 06:40:03;;;;;;;15.98;8.05;;;14.90;99.90;;;;;;5060446;28;20032;-71
2023/05/15 06:42:29;;;;;;;9.52;6.32;;;15.00;99.90;;;;;;5049402;28;20551;-73
2023/05/15 06:44:55;;;;;;;10.75;7.07;;;15.10;99.90;;;;;;5053729;28;20059;-73
2023/05/15 06:47:21;;;;;;;10.32;6.80;;;15.20;99.90;;;;;;5053333;28;20053;-72
2023/05/15 06:49:46;;;;;;;8.25;6.22;;;15.20;99.90;;;;;;5070220;28;20406;-73
2023/05/15 06:52:12;;;;;;;7.45;6.63;;;15.20;99.90;;;;;;5062122;28;20058;-73
2023/05/15 06:54:39;;;;;;;13.13;7.10;;;15.20;99.90;;;;;;5061473;28;20056;-72
2023/05/15 06:57:05;;;;;;;8.18;6.72;;;15.20;99.90;;;;;;5057857;28;20037;-73
2023/05/15 06:59:33;;;;;;;10.68;6.13;;;15.30;99.90;;;;;;5059679;28;20028;-74
2023/05/15 07:01:59;;;;;;;6.63;5.47;;;15.20;99.90;;;;;;5058237;28;20116;-73
2023/05/15 07:04:25;;;;;;;6.05;5.55;;;15.30;99.90;;;;;;5081462;28;20516;-73
2023/05/15 07:06:50;;;;;;;11.75;6.07;;;15.40;99.90;;;;;;5079681;28;20115;-72
2023/05/15 07:09:16;;;;;;;6.72;4.85;;;15.50;99.90;;;;;;5064290;28;20128;-73
2023/05/15 07:11:41;;;;;;;5.88;5.32;;;15.60;99.90;;;;;;5067051;28;20355;-72
2023/05/15 07:14:07;;;;;;;5.57;4.30;;;15.70;99.90;;;;;;5072289;28;20024;-73
2023/05/15 07:16:32;;;;;;;8.02;5.45;;;15.70;99.90;;;;;;5073412;28;20449;-72
2023/05/15 07:18:59;;;;;;;6.00;5.25;;;15.80;99.90;;;;;;5072448;28;20033;-72
2023/05/15 07:21:24;;;;;;;6.45;4.32;;;15.90;99.90;;;;;;5072048;28;20016;-72
2023/05/15 07:23:50;;;;;;;5.30;4.80;;;16.00;99.90;;;;;;5070770;28;20440;-73
2023/05/15 07:26:15;;;;;;;6.05;4.07;;;16.00;99.90;;;;;;5074985;28;20031;-73
2023/05/15 07:28:41;;;;;;;4.30;3.88;;;15.90;99.90;;;;;;5067546;28;20045;-73
2023/05/15 07:31:07;;;;;;;5.55;4.28;;;16.00;99.90;;;;;;5072371;28;20047;-72
2023/05/15 07:33:32;;;;;;;4.22;3.80;;;16.00;99.90;;;;;;5071264;28;20096;-72
2023/05/15 07:35:58;;;;;;;5.93;4.05;;;16.00;99.90;;;;;;5071007;28;20177;-73
2023/05/15 07:38:24;;;;;;;8.48;4.82;;;16.10;99.90;;;;;;5076034;28;20366;-73
2023/05/15 07:40:49;;;;;;;4.30;3.97;;;16.10;99.90;;;;;;5074340;28;20109;-72
2023/05/15 07:43:15;;;;;;;4.63;4.20;;;16.20;99.90;;;;;;5070779;28;20028;-73
2023/05/15 07:45:41;;;;;;;5.32;3.65;;;16.10;99.90;;;;;;5071472;28;20019;-73
2023/05/15 07:48:17;;;;;;;8.70;4.50;;;16.10;99.90;;;;;;5071790;28;20105;-73
2023/05/15 07:50:45;;;;;;;4.45;4.05;;;16.20;99.90;;;;;;5071684;28;20031;-72
2023/05/15 07:53:11;;;;;;;4.80;4.32;;;16.30;99.90;;;;;;5058409;28;20052;-72
2023/05/15 07:55:36;;;;;;;6.97;3.60;;;16.40;99.90;;;;;;5071595;28;20028;-73
2023/05/15 07:58:02;;;;;;;4.30;3.90;;;16.60;99.90;;;;;;5068904;28;20114;-73
2023/05/15 08:00:28;;;;;;;6.50;4.10;;;16.70;99.90;;;;;;5065786;28;20032;-72
2023/05/15 08:02:53;;;;;;;5.63;3.78;;;16.80;99.90;;;;;;5070470;28;20055;-73
2023/05/15 08:05:19;;;;;;;5.93;4.25;;;16.80;99.90;;;;;;5080139;28;20039;-73
2023/05/15 08:07:44;;;;;;;4.80;4.25;;;16.90;99.90;;;;;;5076228;28;20051;-73
2023/05/15 08:10:10;;;;;;;4.40;4.00;;;17.00;99.90;;;;;;5071489;28;20017;-72
2023/05/15 08:12:36;;;;;;;5.75;4.22;;;17.10;99.90;;;;;;5075301;28;20052;-72
2023/05/15 08:15:02;;;;;;;5.80;4.50;;;17.20;99.90;;;;;;5069051;28;20131;-74
2023/05/15 08:17:28;;;;;;;5.13;3.85;;;17.10;99.90;;;;;;5060664;28;20135;-74
2023/05/15 08:19:55;;;;;;;3.47;3.17;;;16.90;99.90;;;;;;5071867;28;20500;-73
2023/05/15 08:22:20;;;;;;;4.32;3.35;;;16.90;99.90;;;;;;5071264;28;20103;-73
2023/05/15 08:24:46;;;;;;;3.38;3.08;;;16.90;99.90;;;;;;5074047;28;20137;-73
2023/05/15 08:27:12;;;;;;;3.42;3.13;;;16.90;99.90;;;;;;5072911;28;20474;-73
2023/05/15 08:29:38;;;;;;;3.70;3.20;;;17.00;99.90;;;;;;5065609;28;20024;-74
2023/05/15 08:32:05;;;;;;;4.65;3.80;;;17.10;99.90;;;;;;5055142;28;21508;-73
2023/05/15 08:34:31;;;;;;;4.10;3.70;;;17.10;99.90;;;;;;5062028;28;20103;-72
2023/05/15 08:36:57;;;;;;;5.30;3.10;;;17.20;99.90;;;;;;5062925;28;20140;-72
2023/05/15 08:39:23;;;;;;;4.60;3.33;;;17.40;99.90;;;;;;5082008;28;20027;-72
2023/05/15 08:42:01;;;;;;;3.40;3.10;;;17.50;99.90;;;;;;5071571;28;20035;-72
2023/05/15 08:44:27;;;;;;;5.68;3.60;;;17.50;99.90;;;;;;5070388;28;20024;-73
2023/05/15 08:46:53;;;;;;;2.90;2.38;;;17.50;99.90;;;;;;5071314;28;20027;-73
2023/05/15 08:49:40;;;;;;;4.95;3.40;;;17.50;99.90;;;;;;5070303;28;20056;-72
2023/05/15 08:52:06;;;;;;;3.72;3.17;;;17.70;99.90;;;;;;5071441;28;20082;-72
2023/05/15 08:54:32;;;;;;;4.25;3.58;;;17.80;99.90;;;;;;5066154;28;20025;-72
2023/05/15 08:56:59;;;;;;;3.53;3.22;;;17.90;99.90;;;;;;5068728;28;20097;-74
2023/05/15 08:59:25;;;;;;;4.70;3.28;;;17.80;99.90;;;;;;5067410;28;20429;-72
2023/05/15 09:01:52;;;;;;;8.63;3.25;;;17.90;99.90;;;;;;5072026;28;20068;-73
2023/05/15 09:04:18;;;;;;;3.88;3.47;;;18.10;99.90;;;;;;5063039;28;20021;-72
2023/05/15 09:06:46;;;;;;;3.53;3.22;;;18.30;99.90;;;;;;5068475;28;20028;-73
2023/05/15 09:09:12;;;;;;;4.20;3.05;;;18.50;99.90;;;;;;5070284;28;20035;-73
2023/05/15 09:11:45;;;;;;;4.53;4.13;;;18.70;99.90;;;;;;5069644;28;20024;-72
2023/05/15 09:14:11;;;;;;;4.35;3.60;;;18.60;99.90;;;;;;5070439;28;20416;-73
2023/05/15 09:16:37;;;;;;;2.85;2.55;;;18.70;99.90;;;;;;5069958;28;20033;-73
2023/05/15 09:19:05;;;;;;;4.75;3.33;;;18.90;99.90;;;;;;5070646;28;20045;-74
2023/05/15 09:21:31;;;;;;;5.28;3.10;;;19.00;99.90;;;;;;5063042;28;20025;-73
2023/05/15 09:24:16;;;;;;;5.47;3.78;;;19.10;99.90;;;;;;5070347;28;20393;-73
2023/05/15 09:26:43;;;;;;;5.03;3.65;;;19.00;99.90;;;;;;5071075;28;20044;-73
2023/05/15 09:29:09;;;;;;;4.38;2.92;;;18.80;99.90;;;;;;5065730;28;20108;-73
2023/05/15 09:31:35;;;;;;;3.78;3.40;;;18.50;99.90;;;;;;5069817;28;20084;-73
2023/05/15 09:34:03;;;;;;;4.25;3.65;;;18.30;99.90;;;;;;5070115;28;20449;-73
2023/05/15 09:36:29;;;;;;;3.33;3.03;;;18.20;99.90;;;;;;5069562;28;20241;-72
2023/05/15 09:38:59;;;;;;;3.00;2.70;;;18.00;99.90;;;;;;5078302;28;20111;-73
2023/05/15 09:41:25;;;;;;;;;;;17.80;99.90;;;;;;5064399;28;20032;-72
2023/05/15 09:43:52;;;;;;;5.75;3.97;;;17.90;99.90;;;;;;5069424;28;19911;-72
2023/05/15 09:46:17;;;;;;;5.90;3.40;;;18.20;99.90;;;;;;5070347;28;20077;-72
2023/05/15 09:48:43;;;;;;;6.40;3.80;;;18.40;99.90;;;;;;5068159;28;20040;-72
2023/05/15 09:51:17;;;;;;;4.57;3.00;;;18.60;99.90;;;;;;5070583;28;20039;-73
2023/05/15 09:53:48;;;;;;;3.88;3.28;;;18.90;99.90;;;;;;5068478;28;20016;-73
2023/05/15 09:56:14;;;;;;;4.50;3.25;;;19.10;99.90;;;;;;5070092;28;20375;-74
2023/05/15 09:58:55;;;;;;;4.25;3.55;;;19.40;99.90;;;;;;5066891;28;20609;-73
2023/05/15 10:01:22;;;;;;;4.53;4.00;;;19.40;99.90;;;;;;5060888;28;20029;-72
2023/05/15 10:03:58;;;;;;;3.50;2.95;;;19.50;99.90;;;;;;5069912;28;20035;-72
2023/05/15 10:06:24;;;;;;;3.30;2.65;;;19.80;99.90;;;;;;5069522;28;20029;-73
2023/05/15 10:08:52;;;;;;;5.63;3.20;;;19.60;99.90;;;;;;5069267;28;20174;-73
2023/05/15 10:11:19;;;;;;;10.85;3.65;;;19.70;99.90;;;;;;5062204;28;20104;-73
2023/05/15 10:13:46;;;;;;;5.35;3.22;;;19.80;99.90;;;;;;5063292;28;20041;-73
2023/05/15 10:16:13;;;;;;;3.78;2.80;;;19.70;99.60;;;;;;5063140;28;20020;-73
2023/05/15 10:18:40;;;;;;;2.95;2.63;;;19.80;99.90;;;;;;5062368;28;20043;-74
2023/05/15 10:21:10;;;;;;;4.10;2.90;;;20.10;98.80;;;;;;5069256;28;20036;-73
2023/05/15 10:23:40;;;;;;;5.20;2.97;;;20.00;98.40;;;;;;5066098;28;20024;-73
2023/05/15 10:26:35;;;;;;;3.23;2.93;;;19.90;98.80;;;;;;5059273;28;20059;-72
2023/05/15 10:29:03;;;;;;;4.43;2.90;;;19.80;98.80;;;;;;5049410;28;20295;-73
2023/05/15 10:31:30;;;;;;;3.97;2.92;;;19.90;98.50;;;;;;5049602;28;20362;-72
2023/05/15 10:33:55;;;;;;;11.93;3.00;;;19.90;98.10;;;;;;5051614;28;20491;-73
2023/05/15 10:36:22;;;;;;;4.40;2.60;;;20.10;97.50;;;;;;5054241;28;20028;-71
2023/05/15 10:38:49;;;;;;;4.78;2.83;;;20.40;97.80;;;;;;5056054;28;20051;-73
2023/05/15 10:41:19;;;;;;;3.30;3.00;;;20.50;98.90;;;;;;5066439;28;20025;-74
2023/05/15 10:43:45;;;;;;;3.58;2.40;;;20.40;97.10;;;;;;5071583;28;20032;-72
2023/05/15 10:46:12;;;;;;;4.15;2.60;;;20.50;97.80;;;;;;5061237;28;20029;-73
2023/05/15 10:48:38;;;;;;;4.97;2.63;;;20.80;99.90;;;;;;5074651;28;20059;-72
2023/05/15 10:51:04;;;;;;;3.95;2.45;;;20.50;99.90;;;;;;5053480;28;20028;-73
2023/05/15 10:53:31;;;;;;;6.35;3.10;;;20.60;99.90;;;;;;5051651;28;20031;-74
2023/05/15 10:55:57;;;;;;;3.60;2.42;;;20.90;99.90;;;;;;5068827;28;20107;-73
2023/05/15 10:58:24;;;;;;;2.83;2.63;;;21.10;99.90;;;;;;5068071;28;20541;-72
2023/05/15 11:00:50;;;;;;;2.70;2.38;;;;;;;;;;5069100;28;20029;-73
2023/05/15 11:03:36;;;;;;;2.90;2.55;;;;;;;;;;5069475;28;20048;-73
2023/05/15 11:06:09;;;;;;;4.95;2.28;;;;;;;;;;5057502;28;20028;-73
2023/05/15 11:08:39;;;;;;;2.60;2.30;;;;;;;;;;5060389;28;20036;-73
2023/05/15 11:11:05;;;;;;;12.60;3.05;;;;;;;;;;5066806;28;20359;-74
2023/05/15 11:14:10;;;;;;;5.72;2.40;;;;;;;;;;5069399;28;20020;-73
2023/05/15 11:16:54;;;;;;;3.90;2.55;;;;;;;;;;5071526;28;20024;-74
2023/05/15 11:19:33;;;;;;;2.80;2.60;;;;;;;;;;5066533;28;20485;-72
2023/05/15 11:22:14;;;;;;;2.35;2.15;;;;;;;;;;5057972;28;20429;-72
2023/05/15 11:24:51;;;;;;;2.85;2.28;;;;;;;;;;5066586;28;20048;-73
2023/05/15 11:27:19;;;;;;;5.18;2.50;;;;;;;;;;5065929;28;20040;-73
2023/05/15 11:30:03;;;;;;;3.25;2.50;;;;;;;;;;5041742;28;20056;-73
2023/05/15 11:32:42;;;;;;;6.18;2.67;;;;;;;;;;5066657;28;20021;-74
2023/05/15 11:35:12;;;;;;;3.45;2.42;;;;;;;;;;5070439;28;20028;-73
2023/05/15 11:37:42;;;;;;;4.28;2.92;;;19.60;95.40;;;;;;5070993;28;20281;-73
2023/05/15 11:40:19;;;;;;;2.50;2.05;;;20.00;95.30;;;;;;5064329;28;20044;-73
2023/05/15 11:43:23;;;;;;;2.92;2.33;;;20.40;93.90;;;;;;5069000;28;20051;-73
2023/05/15 11:45:57;;;;;;;2.42;2.22;;;20.40;94.10;;;;;;5065577;28;20029;-74
2023/05/15 11:48:25;;;;;;;2.30;1.90;;;20.60;93.70;;;;;;5071005;28;20071;-73
2023/05/15 11:50:54;;;;;;;2.38;1.95;;;20.90;93.50;;;;;;5074288;28;20017;-73
2023/05/15 11:53:20;;;;;;;3.05;2.22;;;21.30;92.70;;;;;;5073843;28;20105;-71
2023/05/15 11:55:45;;;;;;;3.53;2.13;;;21.40;92.20;;;;;;5070831;28;20103;-72
2023/05/15 11:58:14;;;;;;;3.85;2.58;;;21.50;92.20;;;;;;5071941;28;20032;-74
2023/05/15 12:00:40;;;;;;;2.35;2.13;;;21.80;91.20;;;;;;5071609;28;20621;-74
2023/05/15 12:03:22;;;;;;;5.45;2.13;;;21.80;92.40;;;;;;5071466;28;20470;-73
2023/05/15 12:05:48;;;;;;;2.95;2.13;;;21.40;91.30;;;;;;5073267;28;20028;-73
2023/05/15 12:08:14;;;;;;;3.00;2.13;;;21.50;91.70;;;;;;5070905;28;20439;-73
2023/05/15 12:10:44;;;;;;;4.55;1.63;;;22.00;91.20;;;;;;5066175;28;20032;-73
2023/05/15 12:13:10;;;;;;;;;;;22.30;88.70;;;;;;5065768;28;20108;-74
2023/05/15 12:15:39;;;;;;;2.53;2.28;;;;;;;;;;5060889;28;20047;-74
2023/05/15 12:18:07;;;;;;;4.10;2.20;;;;;;;;;;5070282;28;20041;-74
2023/05/15 12:20:36;;;;;;;2.00;1.83;;;;;;;;;;5068097;28;20528;-74
2023/05/15 12:23:06;;;;;;;5.97;2.67;;;;;;;;;;5068332;28;20032;-74
2023/05/15 12:25:33;;;;;;;3.15;2.30;;;;;;;;;;5063565;28;20078;-73
2023/05/15 12:28:03;;;;;;;2.10;1.90;;;;;;;;;;5065954;28;20040;-74
2023/05/15 12:30:33;;;;;;;2.88;2.67;;;24.70;83.50;;;;;;5061834;28;20619;-73
2023/05/15 12:33:07;;;;;;;4.65;2.25;;;24.90;77.80;;;;;;5066787;28;20032;-74
2023/05/15 12:35:34;;;;;;;2.58;2.20;;;24.10;77.20;;;;;;5068998;28;20025;-74
2023/05/15 12:38:04;;;;;;;3.22;2.35;;;23.50;79.40;;;;;;5066302;28;20048;-73
2023/05/15 12:40:33;;;;;;;4.22;2.45;;;23.10;81.00;;;;;;5060005;28;20020;-73
2023/05/15 12:43:03;;;;;;;2.33;2.00;;;23.00;80.00;;;;;;5065451;28;20044;-73
2023/05/15 12:45:31;;;;;;;3.20;2.10;;;23.00;78.70;;;;;;5058958;28;20111;-73
2023/05/15 12:47:57;;;;;;;3.05;2.65;;;23.10;80.30;;;;;;5066403;28;20434;-73
2023/05/15 12:50:24;;;;;;;2.53;2.17;;;23.70;79.40;;;;;;5064102;28;20103;-74
2023/05/15 12:52:51;;;;;;;2.45;2.20;;;23.40;77.80;;;;;;5065372;28;20032;-73
2023/05/15 12:55:27;;;;;;;3.58;2.10;;;22.40;79.70;;;;;;5063311;28;20033;-74
2023/05/15 12:57:56;;;;;;;4.32;2.55;;;21.50;83.30;;;;;;5059478;28;20039;-73
2023/05/15 13:00:23;;;;;;;5.25;2.50;;;20.90;85.40;;;;;;5060430;28;20066;-72